Rosamond, California
Current Conditions -  °F | °C
As of 2:56 AM on Friday 24 Oct 2014 (Local Time) from KWJF Reporting Station
Clear Clear  
Wind Chill: 47°   Ceiling: Unl
Heat Index: 49°   Visibility: 10mi
Dew Point: 26°   Wind: 5mph
Humidity: 41%   Direction: 60°ENE
Pressure: 30.05"   Gusts: NA
Location:  34.86°N, 118.16°W
Report Text: KWJF 240956Z 06004KT 10SM CLR 09/M03 A3005 RMK AO2 SLP163 T00941033
Loading
Personal Weather Stations






























Interactive Weather Map
Tropical Storm Tracking
New forecast layout! Learn more

10-Day Weather Forecast

Advertisements
Track Severe Weather on mobile